This is the latest recevied weather packets stored in our database for station/object KG7DQI-13. If no packets are shown the sender has not sent any weather packets the latest 10 day(s).
| Time | Temp. | Humidity | Pressure | Rain* | Wind** | Luminosity | Snow |
|---|---|---|---|---|---|---|---|
| 1777274041 | 6.67° C | 68% | 911.9 hPa | 0 mm | - | 0 W/m² | - |
| 1777273170 | 6.11° C | 66% | 911.7 hPa | 0 mm | - | 0 W/m² | - |
| 1777272267 | 6.11° C | 64% | 911.6 hPa | 0 mm | - | 0 W/m² | - |
| 1777271387 | 6.67° C | 63% | 911.4 hPa | 0 mm | - | 0 W/m² | - |
| 1777270513 | 7.22° C | 61% | 911.4 hPa | 0 mm | - | 0 W/m² | - |
| 1777269634 | 7.22° C | 61% | 911.4 hPa | 0 mm | - | 0 W/m² | - |
| 1777268720 | 7.78° C | 59% | 911.3 hPa | 0 mm | - | 0 W/m² | - |
| 1777267843 | 8.89° C | 58% | 911.2 hPa | 0 mm | - | 0 W/m² | - |
| 1777266939 | 9.44° C | 57% | 911 hPa | 0 mm | - | 0 W/m² | - |
| 1777265994 | 10° C | 55% | 910.9 hPa | 0 mm | - | 0 W/m² | - |
| 1777265118 | 10.56° C | 51% | 910.9 hPa | 0 mm | - | 0 W/m² | - |
| 1777264254 | 10.56° C | 50% | 910.4 hPa | 0 mm | - | 0 W/m² | - |
| 1777263348 | 10.56° C | 51% | 910.4 hPa | 0 mm | - | 0 W/m² | - |
| 1777262413 | 10° C | 50% | 910.2 hPa | 0 mm | - | 0 W/m² | - |
| 1777261486 | 9.44° C | 57% | 910.1 hPa | 0 mm | - | 0 W/m² | - |
| 1777260594 | 8.89° C | 62% | 910.3 hPa | 0 mm | - | 0 W/m² | - |
| 1777259679 | 9.44° C | 63% | 910.3 hPa | 0 mm | - | 0 W/m² | - |
| 1777258779 | 10° C | 57% | 910.1 hPa | 0 mm | - | 0 W/m² | - |
| 1777257832 | 10° C | 55% | 909.7 hPa | 0 mm | - | 7 W/m² | - |
| 1777256885 | 10.56° C | 57% | 909.4 hPa | 0 mm | - | 19 W/m² | - |
| 1777255996 | 10.56° C | 58% | 909.4 hPa | 0 mm | - | 32 W/m² | - |
| 1777255051 | 10.56° C | 58% | 909.1 hPa | 0 mm | - | 39 W/m² | - |
| 1777254127 | 10.56° C | 58% | 909.2 hPa | 0 mm | - | 39 W/m² | - |
| 1777253187 | 10.56° C | 59% | 909.1 hPa | 0 mm | - | 40 W/m² | - |
| 1777252243 | 12.78° C | 47% | 908.8 hPa | 0 mm | - | 42 W/m² | - |
* Rain latest hour (hover to see other rain measurements)
** Current wind speed in m/s (hover to see current wind gust speed)